Time;durP1;ratioP1;P1;durP2;ratioP2;P2;SDS_P1;SDS_P2;PMS_P1;PMS_P2;Temp;Humidity;BMP_temperature;BMP_pressure;BME280_temperature;BME280_humidity;BME280_pressure;Samples;Min_cycle;Max_cycle;Signal;HPM_P1;HPM_P2
2022/06/30 00:01:44;;;;;;;2.30;2.10;;;25.20;75.90;;;25.68;46.88;98279.09;4987544;28;113914;-85
2022/06/30 00:04:11;;;;;;;5.03;2.40;;;25.10;76.00;;;25.66;47.08;98292.91;4978850;28;124429;-85
2022/06/30 00:06:37;;;;;;;2.67;2.47;;;25.10;76.20;;;25.63;46.90;98288.88;4978902;28;123492;-85
2022/06/30 00:09:06;;;;;;;2.47;2.27;;;25.10;77.10;;;25.60;47.27;98283.25;4968716;28;115174;-86
2022/06/30 00:11:33;;;;;;;4.43;2.50;;;25.10;76.50;;;25.57;47.45;98288.53;4982937;28;115402;-85
2022/06/30 00:14:01;;;;;;;2.60;2.37;;;25.10;76.70;;;25.52;47.27;98289.03;4977526;28;124040;-85
2022/06/30 00:16:27;;;;;;;2.53;2.30;;;25.00;76.80;;;25.51;47.42;98293.09;4981910;28;124076;-86
2022/06/30 00:18:54;;;;;;;2.40;2.20;;;25.00;76.90;;;25.50;47.34;98288.66;4982949;28;114406;-85
2022/06/30 00:21:20;;;;;;;2.43;2.23;;;25.00;77.10;;;25.49;47.30;98292.69;4985109;28;113168;-86
2022/06/30 00:23:47;;;;;;;2.37;2.17;;;24.90;77.10;;;25.46;47.43;98285.06;4986239;28;124686;-86
2022/06/30 00:26:14;;;;;;;2.30;2.10;;;24.90;77.20;;;25.45;47.68;98279.84;4969799;28;123014;-86
2022/06/30 00:28:40;;;;;;;2.00;1.90;;;24.90;77.40;;;25.42;47.69;98286.38;4971872;28;112421;-86
2022/06/30 00:31:07;;;;;;;3.53;2.63;;;24.90;77.50;;;25.38;47.62;98282.78;4979521;28;114030;-84
2022/06/30 00:33:33;;;;;;;2.43;2.23;;;24.90;77.60;;;25.36;47.58;98280.34;4969593;28;124079;-84
2022/06/30 00:36:00;;;;;;;3.20;2.53;;;24.80;77.70;;;25.34;47.64;98282.81;4978187;28;122953;-84
2022/06/30 00:38:26;;;;;;;2.80;2.40;;;24.80;77.80;;;25.33;47.85;98281.19;4977909;28;114045;-84
2022/06/30 00:40:53;;;;;;;2.57;2.00;;;24.80;78.00;;;25.31;48.05;98283.69;4980823;28;114112;-84
2022/06/30 00:43:19;;;;;;;3.07;2.10;;;24.80;78.10;;;25.29;47.96;98286.13;4975805;28;123930;-84
2022/06/30 00:45:48;;;;;;;3.53;2.53;;;24.80;78.30;;;25.27;47.77;98286.53;4978809;28;123941;-84
2022/06/30 00:48:17;;;;;;;3.03;2.57;;;24.70;78.40;;;25.26;47.98;98281.31;4978333;28;114136;-84
2022/06/30 00:50:44;;;;;;;3.20;2.60;;;24.70;78.50;;;25.24;48.67;98280.94;4970442;28;113383;-84
2022/06/30 00:53:12;;;;;;;3.10;2.50;;;24.70;78.80;;;25.21;48.17;98278.97;4975299;28;123759;-83
2022/06/30 00:55:39;;;;;;;3.37;2.53;;;24.70;79.00;;;25.18;48.59;98274.16;4986927;28;123254;-84
2022/06/30 00:58:07;;;;;;;2.93;2.67;;;24.60;79.00;;;25.12;48.45;98265.31;4977040;28;115447;-84
2022/06/30 01:00:39;;;;;;;3.53;2.73;;;24.60;79.20;;;25.09;48.74;98272.63;4976770;28;114881;-84
2022/06/30 01:03:09;;;;;;;2.93;2.50;;;24.60;79.40;;;25.06;48.72;98267.78;4980640;28;124024;-84
2022/06/30 01:05:37;;;;;;;2.73;2.50;;;24.60;79.60;;;25.04;49.19;98264.59;4976541;28;124004;-84
2022/06/30 01:08:05;;;;;;;3.10;2.90;;;24.50;79.70;;;25.02;49.24;98264.22;4981006;28;114134;-85
2022/06/30 01:13:18;;;;;;;3.37;3.00;;;24.50;80.20;;;24.97;49.09;98264.69;4988723;28;123863;-84
2022/06/30 01:15:45;;;;;;;3.20;2.67;;;24.50;80.40;;;24.95;49.46;98267.13;4986722;28;122834;-84
2022/06/30 01:18:11;;;;;;;3.03;2.50;;;24.40;80.50;;;24.94;49.60;98265.53;4975087;28;114292;-84
2022/06/30 01:20:38;;;;;;;5.53;3.20;;;24.40;80.60;;;24.90;49.28;98265.59;4970212;28;114061;-84
2022/06/30 01:23:05;;;;;;;4.23;3.13;;;24.40;80.80;;;24.88;49.69;98262.38;4983444;28;124000;-84
2022/06/30 01:25:33;;;;;;;3.07;2.87;;;24.30;80.80;;;24.84;49.32;98255.94;4985753;28;123851;-84
2022/06/30 01:28:02;;;;;;;3.80;2.90;;;24.30;80.90;;;24.82;49.67;98260.41;4983255;28;114198;-84
2022/06/30 01:30:47;;;;;;;3.27;2.37;;;24.30;81.00;;;24.78;49.87;98263.28;4971944;28;113941;-84
2022/06/30 01:36:55;;;;;;;2.53;2.27;;;24.20;81.30;;;24.72;50.06;98255.69;4994222;28;123840;-84
2022/06/30 01:39:22;;;;;;;3.33;2.90;;;24.20;81.70;;;24.69;50.09;98257.34;4983266;28;113782;-84
2022/06/30 01:41:49;;;;;;;3.60;3.07;;;24.20;81.80;;;24.68;50.30;98265.00;4977056;28;114827;-85
2022/06/30 01:44:15;;;;;;;3.17;2.87;;;24.20;82.10;;;24.66;50.48;98255.34;4971194;28;124067;-85
2022/06/30 01:46:47;;;;;;;4.00;2.97;;;24.20;82.20;;;24.65;50.14;98259.41;4980599;28;124017;-85
2022/06/30 01:49:14;;;;;;;3.70;3.40;;;24.10;82.30;;;24.63;50.34;98248.50;4989709;28;114378;-85
2022/06/30 01:51:44;;;;;;;3.80;2.47;;;24.10;82.50;;;24.61;50.15;98250.97;4976375;28;115447;-86
2022/06/30 01:54:10;;;;;;;3.13;2.57;;;24.10;82.70;;;24.61;50.51;98252.97;4986244;28;124280;-85
2022/06/30 01:56:37;;;;;;;3.30;2.73;;;24.00;82.70;;;24.59;50.42;98250.59;4997403;28;123348;-84
2022/06/30 01:59:08;;;;;;;3.10;2.80;;;24.00;82.80;;;24.58;50.57;98248.16;4974519;28;114385;-85
2022/06/30 02:01:35;;;;;;;4.13;2.90;;;24.00;82.90;;;24.55;50.35;98241.34;4986326;28;114288;-85
2022/06/30 02:06:48;;;;;;;2.70;2.50;;;24.00;83.00;;;24.48;50.44;98246.28;4984111;28;124942;-85
2022/06/30 02:09:15;;;;;;;2.90;2.47;;;24.00;83.20;;;24.44;50.49;98246.31;4979237;28;114281;-84
2022/06/30 02:11:41;;;;;;;2.90;2.40;;;23.90;83.10;;;24.42;50.73;98240.25;4983390;28;114275;-84
2022/06/30 02:14:08;;;;;;;3.00;2.70;;;23.90;83.10;;;24.40;50.63;98242.69;4976317;28;124562;-84
2022/06/30 02:16:35;;;;;;;2.93;2.60;;;23.90;83.30;;;24.37;50.77;98237.91;4981299;28;123546;-84
2022/06/30 02:19:02;;;;;;;4.37;3.23;;;23.90;83.40;;;24.35;50.75;98234.69;4981578;28;114100;-85
2022/06/30 02:21:28;;;;;;;3.40;2.90;;;23.90;83.50;;;24.33;50.92;98242.75;4975156;28;113939;-85
2022/06/30 02:23:55;;;;;;;3.20;2.90;;;23.80;83.50;;;24.30;51.01;98246.44;4971075;28;125862;-84
2022/06/30 02:26:21;;;;;;;2.60;2.40;;;23.80;83.70;;;24.27;50.77;98247.28;4985059;28;124122;-84
2022/06/30 02:28:48;;;;;;;3.87;2.93;;;23.70;83.70;;;24.24;50.74;98246.88;4985925;28;114262;-83
2022/06/30 02:31:15;;;;;;;2.60;2.40;;;23.70;83.90;;;24.24;51.11;98246.88;4978402;28;113933;-85
2022/06/30 02:33:41;;;;;;;3.00;2.70;;;23.70;84.00;;;24.23;51.07;98244.47;4980132;28;124055;-86
2022/06/30 02:36:08;;;;;;;2.60;2.40;;;23.70;84.10;;;24.21;51.19;98246.91;4988795;28;123965;-86
2022/06/30 02:38:35;;;;;;;3.27;2.97;;;23.70;84.20;;;24.18;51.33;98242.09;4983871;28;115355;-86
2022/06/30 02:41:01;;;;;;;3.50;3.20;;;23.60;84.40;;;24.17;51.21;98246.94;4974850;28;114709;-85
2022/06/30 02:43:27;;;;;;;3.47;2.73;;;23.60;84.50;;;24.16;51.44;98244.53;4983817;28;123718;-86
2022/06/30 02:45:54;;;;;;;3.17;2.80;;;23.60;84.60;;;24.17;51.46;98246.94;4984502;28;123905;-86
2022/06/30 02:48:21;;;;;;;3.17;2.70;;;23.60;85.50;;;24.15;51.39;98249.41;4974144;28;113600;-86
2022/06/30 02:50:47;;;;;;;7.00;2.93;;;23.60;84.90;;;24.14;51.47;98241.34;4981069;28;113193;-84
2022/06/30 02:53:14;;;;;;;3.13;2.83;;;23.10;84.40;;;24.14;51.46;98241.34;4978231;28;124089;-84
2022/06/30 02:55:40;;;;;;;2.90;2.67;;;23.60;85.00;;;24.10;51.38;98229.25;4976694;28;123908;-84
2022/06/30 02:58:07;;;;;;;3.43;2.60;;;23.60;84.90;;;24.06;51.45;98234.94;4978808;28;114554;-84
2022/06/30 03:00:33;;;;;;;2.60;2.40;;;23.50;84.70;;;24.03;51.13;98238.59;4990992;28;113159;-84
2022/06/30 03:02:59;;;;;;;2.60;2.40;;;23.50;84.60;;;24.02;51.25;98237.00;4983118;28;124338;-85
2022/06/30 03:05:26;;;;;;;2.70;2.50;;;23.50;84.70;;;24.01;51.34;98244.66;4986945;28;123851;-85
2022/06/30 03:07:52;;;;;;;4.03;2.60;;;23.50;84.80;;;24.01;51.14;98238.22;4975325;28;114285;-84
2022/06/30 03:10:19;;;;;;;2.67;2.47;;;23.50;84.80;;;24.00;51.28;98245.09;4974493;28;113987;-84
2022/06/30 03:12:46;;;;;;;3.47;2.57;;;23.40;84.80;;;23.99;51.23;98235.00;4979402;28;124088;-84
2022/06/30 03:15:12;;;;;;;3.00;2.80;;;23.50;84.90;;;23.97;51.37;98231.81;4980582;28;122175;-85
2022/06/30 03:17:39;;;;;;;3.57;2.50;;;23.40;84.90;;;23.95;51.40;98243.50;4984723;28;114674;-85
2022/06/30 03:20:06;;;;;;;2.70;2.37;;;23.40;85.00;;;23.95;51.25;98237.06;4982722;28;114090;-85
2022/06/30 03:22:32;;;;;;;2.83;2.47;;;23.40;85.00;;;23.93;51.22;98243.13;4976604;28;123549;-85
2022/06/30 03:24:59;;;;;;;2.57;2.37;;;23.40;85.00;;;23.90;51.28;98240.34;4981604;28;123963;-85
2022/06/30 03:27:30;;;;;;;2.80;2.60;;;23.40;85.10;;;23.87;51.41;98252.44;4979033;28;116038;-84
2022/06/30 03:29:56;;;;;;;2.73;2.53;;;23.30;85.00;;;23.83;51.51;98244.03;4980974;28;115522;-85
2022/06/30 03:32:23;;;;;;;3.17;2.87;;;23.30;85.10;;;23.83;51.42;98237.56;4984241;28;123831;-84
2022/06/30 03:34:49;;;;;;;3.73;2.73;;;23.30;85.10;;;23.80;51.49;98242.84;4975494;28;124499;-85
2022/06/30 03:37:16;;;;;;;2.70;2.50;;;23.30;85.20;;;23.78;51.62;98241.66;4980438;28;114550;-84
2022/06/30 03:39:42;;;;;;;3.90;2.63;;;23.20;85.10;;;23.75;51.55;98248.09;4982571;28;113949;-85
2022/06/30 03:42:09;;;;;;;3.23;2.50;;;23.20;85.30;;;23.72;51.71;98241.28;4972490;28;124143;-85
2022/06/30 03:44:35;;;;;;;2.90;2.70;;;23.20;85.30;;;23.70;51.75;98243.69;4972659;28;124046;-85
2022/06/30 03:47:02;;;;;;;3.20;2.57;;;23.20;85.40;;;23.69;51.64;98239.25;4978415;28;114056;-85
2022/06/30 03:49:29;;;;;;;3.10;2.80;;;23.10;85.40;;;23.66;51.67;98240.06;4963351;28;113068;-85
2022/06/30 03:51:56;;;;;;;2.97;2.67;;;23.10;85.50;;;23.66;51.62;98240.06;4990700;28;123318;-85
2022/06/30 03:54:22;;;;;;;2.50;2.30;;;23.10;85.50;;;23.65;51.69;98243.31;4983724;28;123403;-85
2022/06/30 03:56:49;;;;;;;3.33;2.43;;;23.10;85.60;;;23.65;51.85;98237.69;4978018;28;113984;-85
2022/06/30 03:59:16;;;;;;;3.60;2.40;;;23.10;85.70;;;23.65;51.58;98238.47;4987150;28;114006;-84
2022/06/30 04:01:43;;;;;;;3.60;2.90;;;23.10;85.80;;;23.66;51.73;98234.44;4984642;28;122986;-85
2022/06/30 04:04:09;;;;;;;2.80;2.60;;;23.10;85.80;;;23.68;51.76;98237.66;4971351;28;123056;-84
2022/06/30 04:06:35;;;;;;;3.30;2.80;;;23.10;85.90;;;23.70;51.70;98232.41;4966793;28;114943;-84
2022/06/30 04:09:02;;;;;;;3.83;2.50;;;23.10;85.90;;;23.75;51.52;98233.97;4981430;28;114644;-84
2022/06/30 04:11:29;;;;;;;2.50;2.30;;;23.10;85.90;;;23.77;51.52;98229.53;4982172;28;124817;-84
2022/06/30 04:13:55;;;;;;;2.40;2.20;;;23.20;85.90;;;23.79;51.52;98232.75;4982959;28;122490;-84
2022/06/30 04:16:21;;;;;;;3.30;2.60;;;23.20;85.70;;;23.80;51.42;98234.38;4982478;28;114202;-84
2022/06/30 04:18:48;;;;;;;2.80;2.50;;;23.20;85.70;;;23.80;51.41;98230.72;4971953;28;115043;-84
2022/06/30 04:21:16;;;;;;;2.73;2.50;;;23.30;85.60;;;23.80;51.12;98245.66;4971415;28;124221;-84
2022/06/30 04:23:44;;;;;;;3.03;2.73;;;23.20;85.40;;;23.79;51.38;98244.03;4992948;28;123778;-85
2022/06/30 04:26:11;;;;;;;2.70;2.50;;;23.30;85.50;;;23.80;51.27;98247.66;4968312;28;113863;-85
2022/06/30 04:28:38;;;;;;;2.83;2.37;;;23.20;85.40;;;23.81;51.28;98241.59;4971673;28;114156;-85
2022/06/30 04:33:50;;;;;;;3.37;2.57;;;23.30;85.60;;;23.84;51.22;98244.81;4991368;28;124315;-84
2022/06/30 04:36:17;;;;;;;4.73;2.60;;;23.30;85.60;;;23.85;51.40;98252.06;4981454;28;114115;-83
2022/06/30 04:38:43;;;;;;;2.43;2.23;;;23.30;86.30;;;23.87;51.31;98241.97;4978250;28;114006;-84
2022/06/30 04:41:25;;;;;;;2.80;2.60;;;23.30;85.70;;;23.88;51.26;98242.75;4970634;28;124424;-83
2022/06/30 04:43:57;;;;;;;2.63;2.43;;;23.30;85.60;;;23.88;51.40;98232.28;4971209;28;124599;-84
2022/06/30 04:46:24;;;;;;;2.80;2.53;;;23.30;85.70;;;23.90;51.24;98229.03;4984795;28;114087;-83
2022/06/30 04:48:53;;;;;;;2.50;2.30;;;23.40;85.80;;;23.91;51.27;98228.66;4975682;28;113982;-84
2022/06/30 04:51:20;;;;;;;3.63;3.10;;;23.40;85.80;;;23.92;51.28;98223.78;4984250;28;124063;-83
2022/06/30 04:53:47;;;;;;;2.50;2.30;;;23.40;85.80;;;23.95;51.31;98234.25;4980711;28;124773;-83
2022/06/30 04:56:15;;;;;;;3.00;2.70;;;23.30;85.60;;;23.99;51.46;98229.34;4980648;28;114834;-83
2022/06/30 04:58:42;;;;;;;3.63;2.90;;;23.40;85.90;;;24.03;51.40;98230.13;4977555;28;114187;-85
2022/06/30 05:01:08;;;;;;;3.67;2.60;;;23.40;86.00;;;24.07;51.43;98222.44;4976602;28;124225;-84
2022/06/30 05:03:35;;;;;;;3.63;3.10;;;23.40;86.00;;;24.09;51.51;98219.19;4985394;28;122813;-84
2022/06/30 05:06:03;;;;;;;5.00;3.80;;;23.50;86.10;;;24.04;51.43;98214.81;4981832;28;115813;-84
2022/06/30 05:08:30;;;;;;;5.00;3.30;;;23.50;86.10;;;24.00;51.33;98220.50;4968946;28;114966;-84
2022/06/30 05:10:58;;;;;;;5.57;2.93;;;23.40;86.00;;;23.99;51.60;98224.53;4983047;28;124041;-84
2022/06/30 05:13:24;;;;;;;4.37;3.30;;;23.40;86.00;;;24.02;51.55;98231.38;4964970;28;122623;-85
2022/06/30 05:15:51;;;;;;;4.60;3.10;;;23.50;86.20;;;24.06;51.64;98229.31;4969449;28;114631;-84
2022/06/30 05:18:17;;;;;;;3.07;2.87;;;23.50;86.20;;;24.09;51.87;98227.66;4974567;28;113420;-85
2022/06/30 05:20:44;;;;;;;2.97;2.67;;;23.50;86.30;;;24.13;51.63;98223.59;4975945;28;124655;-85
2022/06/30 05:23:11;;;;;;;3.47;2.97;;;23.50;86.30;;;24.18;51.50;98233.63;4972041;28;123920;-83
2022/06/30 05:28:24;;;;;;;2.70;2.23;;;23.60;86.50;;;24.27;51.61;98233.16;4979056;28;114073;-84
2022/06/30 05:30:51;;;;;;;3.40;3.03;;;23.60;86.60;;;24.33;51.34;98226.63;4968547;28;124429;-84
2022/06/30 05:33:21;;;;;;;3.13;2.90;;;23.70;86.80;;;24.39;51.31;98230.56;4980123;28;123859;-85
2022/06/30 05:35:51;;;;;;;4.70;3.10;;;23.70;86.70;;;24.45;51.48;98231.78;4982836;28;114371;-83
2022/06/30 05:38:18;;;;;;;3.60;2.80;;;23.80;86.80;;;24.53;51.40;98224.03;4970181;28;113653;-82
2022/06/30 05:40:46;;;;;;;3.37;2.80;;;23.80;86.80;;;24.61;51.43;98225.56;4969112;28;124303;-84
2022/06/30 05:43:14;;;;;;;2.97;2.63;;;23.90;86.80;;;24.67;51.16;98229.50;4974907;28;125822;-83
2022/06/30 05:45:41;;;;;;;5.20;3.70;;;24.00;86.70;;;24.72;51.04;98224.59;4982118;28;114346;-84
2022/06/30 05:48:08;;;;;;;3.50;3.20;;;24.00;86.60;;;24.75;50.88;98221.75;4968322;28;114277;-84
2022/06/30 05:50:35;;;;;;;4.50;3.53;;;24.00;86.40;;;24.82;51.06;98221.66;4967931;28;124696;-85
2022/06/30 05:53:01;;;;;;;3.40;2.87;;;24.10;86.50;;;24.86;50.87;98222.41;4979547;28;122911;-83
2022/06/30 05:55:28;;;;;;;5.60;3.53;;;24.20;86.60;;;24.95;50.97;98227.56;4984972;28;115006;-84
2022/06/30 05:57:58;;;;;;;3.83;3.30;;;24.20;86.60;;;25.01;50.84;98214.56;4975145;28;114012;-83
2022/06/30 06:00:28;;;;;;;3.60;2.83;;;24.30;86.60;;;25.08;50.97;98211.63;4959984;28;123246;-84
2022/06/30 06:02:55;;;;;;;4.83;3.33;;;24.40;86.60;;;25.16;50.61;98212.38;4962368;28;123708;-84
2022/06/30 06:05:22;;;;;;;3.77;2.73;;;24.40;86.60;;;25.26;50.45;98202.94;4971060;28;113445;-84
2022/06/30 06:07:50;;;;;;;3.93;3.13;;;24.50;87.30;;;25.33;50.41;98214.16;4972975;28;113530;-84
2022/06/30 06:10:16;;;;;;;4.20;3.17;;;24.60;86.60;;;25.42;50.46;98215.66;4969358;28;124337;-84
2022/06/30 06:12:43;;;;;;;5.10;3.60;;;24.70;86.60;;;25.47;50.13;98213.13;4982098;28;123083;-85
2022/06/30 06:15:14;;;;;;;4.57;3.60;;;24.70;86.50;;;25.51;50.30;98213.88;4978136;28;114741;-85
2022/06/30 06:17:47;;;;;;;8.87;5.17;;;24.80;86.50;;;25.57;50.12;98217.81;4971926;28;114108;-84
2022/06/30 06:20:17;;;;;;;10.73;4.00;;;24.90;86.50;;;25.62;50.43;98224.22;4980227;28;124045;-85
2022/06/30 06:22:45;;;;;;;5.03;3.77;;;24.90;86.40;;;25.68;50.61;98220.47;4984954;28;124255;-87
2022/06/30 06:25:13;;;;;;;10.50;4.80;;;25.00;86.50;;;25.73;50.13;98213.53;4974569;28;114606;-87
2022/06/30 06:27:41;;;;;;;8.03;3.90;;;25.00;86.50;;;25.75;50.36;98222.41;4977461;28;113966;-88
2022/06/30 06:30:10;;;;;;;5.73;4.53;;;25.10;86.40;;;25.78;50.36;98228.00;4986935;28;124389;-87
2022/06/30 06:32:37;;;;;;;5.63;3.90;;;25.10;86.40;;;25.86;50.59;98228.72;4982309;28;124349;-87
2022/06/30 06:35:22;;;;;;;4.60;4.10;;;25.20;86.40;;;25.91;50.03;98216.91;4968527;28;114454;-87
2022/06/30 06:37:49;;;;;;;4.70;4.03;;;25.30;86.40;;;25.97;50.25;98215.19;4975207;28;114098;-87
2022/06/30 06:40:15;;;;;;;4.57;4.10;;;25.30;86.30;;;26.02;50.31;98215.94;4996685;28;122494;-87
2022/06/30 06:42:42;;;;;;;8.43;5.27;;;25.30;86.20;;;26.05;50.04;98207.34;5003117;28;122209;-87
2022/06/30 06:45:09;;;;;;;10.13;3.90;;;25.40;86.20;;;26.11;50.06;98205.63;4998451;28;113503;-88
2022/06/30 06:47:35;;;;;;;5.70;4.00;;;25.50;86.30;;;26.17;50.23;98203.13;4999540;28;114011;-91
2022/06/30 06:50:21;;;;;;;12.40;4.53;;;25.50;86.20;;;26.22;49.76;98202.59;4986387;28;124576;-88
2022/06/30 06:52:47;;;;;;;12.27;4.87;;;25.60;86.10;;;26.25;49.83;98198.94;4991762;28;124089;-89
2022/06/30 06:55:16;;;;;;;5.33;4.27;;;25.60;86.10;;;26.28;49.85;98198.06;4980128;28;114357;-89
2022/06/30 06:57:43;;;;;;;3.60;3.30;;;25.60;86.10;;;26.33;49.76;98200.41;4978798;28;114016;-88
2022/06/30 07:00:12;;;;;;;4.93;3.93;;;25.70;86.10;;;26.40;49.80;98208.72;4979519;28;124599;-88
2022/06/30 07:02:40;;;;;;;6.00;4.67;;;25.70;86.00;;;26.45;49.94;98202.56;4971673;28;124308;-88
2022/06/30 07:05:08;;;;;;;7.27;4.80;;;25.80;86.10;;;26.50;49.65;98208.97;4987832;28;114432;-88
2022/06/30 07:07:36;;;;;;;6.23;5.20;;;25.80;86.00;;;26.50;50.13;98201.28;4985933;28;112358;-88
2022/06/30 07:10:07;;;;;;;5.07;3.77;;;25.90;86.00;;;26.58;49.92;98210.47;4969689;28;124293;-87
2022/06/30 07:12:36;;;;;;;4.90;3.97;;;25.90;86.00;;;26.65;49.41;98210.31;4976472;28;123897;-89
2022/06/30 07:15:03;;;;;;;4.30;3.90;;;26.00;85.90;;;26.73;49.43;98205.31;4976986;28;114409;-88
2022/06/30 07:17:37;;;;;;;4.40;4.00;;;26.00;85.90;;;26.82;49.45;98205.53;4979063;28;114277;-88
2022/06/30 07:20:04;;;;;;;4.47;3.97;;;26.10;85.80;;;26.91;49.65;98204.94;4987587;28;123971;-89
2022/06/30 07:22:34;;;;;;;6.53;3.93;;;26.20;85.80;;;26.99;49.47;98201.50;4984428;28;123429;-88
2022/06/30 07:25:02;;;;;;;5.00;4.40;;;26.30;85.70;;;27.04;48.76;98208.72;4968987;28;113574;-86
2022/06/30 07:27:28;;;;;;;4.73;4.07;;;26.30;86.10;;;27.09;48.99;98197.66;4969363;28;113401;-86
2022/06/30 07:29:55;;;;;;;6.40;4.70;;;26.40;85.30;;;27.16;48.68;98193.84;4976972;28;124254;-86
2022/06/30 07:32:22;;;;;;;5.73;3.83;;;26.40;85.00;;;27.20;48.65;98194.59;4980821;28;123896;-85
2022/06/30 07:34:48;;;;;;;4.20;3.50;;;26.50;84.90;;;27.26;48.71;98192.84;4979769;28;115162;-86
2022/06/30 07:37:15;;;;;;;5.50;4.07;;;26.50;84.80;;;27.34;48.44;98192.69;4985633;28;115381;-85
2022/06/30 07:39:41;;;;;;;7.30;3.77;;;26.60;84.60;;;27.37;48.24;98197.47;4979516;28;124432;-86
2022/06/30 07:42:08;;;;;;;6.80;4.10;;;26.60;84.50;;;27.43;48.14;98193.69;4982526;28;123190;-86
2022/06/30 07:44:34;;;;;;;3.70;3.40;;;26.70;84.50;;;27.51;48.25;98197.13;4987928;28;114292;-86
2022/06/30 07:47:01;;;;;;;6.20;4.50;;;26.80;84.30;;;27.55;48.25;98195.00;4979138;28;114206;-86
2022/06/30 07:49:28;;;;;;;5.27;3.97;;;26.80;84.00;;;27.59;47.73;98187.19;4992371;28;123356;-87
2022/06/30 07:51:54;;;;;;;4.20;3.80;;;26.90;83.90;;;27.62;47.70;98186.34;4980883;28;123878;-86
2022/06/30 07:54:21;;;;;;;7.83;4.30;;;26.90;83.80;;;27.68;47.94;98184.56;4991959;28;114506;-85
2022/06/30 07:56:48;;;;;;;4.77;3.90;;;27.00;83.70;;;27.75;47.81;98181.56;4996653;28;112484;-87
2022/06/30 07:59:14;;;;;;;5.47;4.07;;;27.10;83.70;;;27.80;47.65;98168.88;4969455;28;123041;-87
2022/06/30 08:01:41;;;;;;;5.07;4.00;;;27.10;83.40;;;27.88;47.31;98178.81;4979286;28;123657;-87
2022/06/30 08:04:07;;;;;;;3.97;3.67;;;27.20;83.30;;;27.95;47.25;98163.63;4993419;28;114413;-86
2022/06/30 08:06:34;;;;;;;4.40;4.00;;;27.20;83.20;;;28.02;47.19;98166.28;5001985;28;113426;-86
2022/06/30 08:09:00;;;;;;;4.67;3.90;;;27.30;83.00;;;28.08;47.05;98167.34;4987865;28;124892;-85
2022/06/30 08:11:28;;;;;;;6.07;4.30;;;27.40;82.80;;;28.15;46.90;98163.50;4994970;28;124282;-86
2022/06/30 08:13:54;;;;;;;7.07;4.70;;;27.40;82.50;;;28.18;46.31;98165.44;4977953;28;113820;-86
2022/06/30 08:16:21;;;;;;;7.00;4.70;;;27.50;81.70;;;28.14;46.15;98164.75;4985498;28;114987;-88
2022/06/30 08:18:47;;;;;;;5.57;4.53;;;27.50;81.50;;;28.15;46.12;98161.47;4973484;28;124471;-87
2022/06/30 08:21:14;;;;;;;4.20;3.80;;;27.50;81.30;;;28.19;46.02;98169.91;4991040;28;123503;-87
2022/06/30 08:23:40;;;;;;;3.97;3.63;;;27.50;81.20;;;28.25;46.30;98165.25;4978734;28;114980;-85
2022/06/30 08:26:07;;;;;;;8.57;5.10;;;27.60;81.20;;;28.31;46.03;98174.03;4975768;28;113845;-86
2022/06/30 08:28:34;;;;;;;4.70;4.00;;;27.60;81.10;;;28.33;46.15;98182.91;4980068;28;124870;-86
2022/06/30 08:31:01;;;;;;;4.13;3.73;;;28.10;81.20;;;28.35;46.02;98177.59;4989299;28;124223;-85
2022/06/30 08:33:28;;;;;;;4.50;4.00;;;27.70;80.80;;;28.38;45.66;98168.97;4991968;28;113518;-86
2022/06/30 08:35:54;;;;;;;4.83;4.30;;;27.70;80.50;;;28.44;45.69;98172.09;4974686;28;114577;-87
2022/06/30 08:38:25;;;;;;;4.73;3.70;;;27.80;80.50;;;28.51;45.71;98165.41;4984524;28;122632;-86
2022/06/30 08:43:37;;;;;;;5.33;3.67;;;27.90;80.30;;;28.62;45.52;98171.59;4985472;28;114746;-86
2022/06/30 08:46:05;;;;;;;4.50;3.60;;;28.00;80.30;;;28.67;45.17;98165.34;4975606;28;113898;-86
2022/06/30 08:48:32;;;;;;;4.50;3.90;;;28.00;80.00;;;28.71;44.73;98163.19;4984934;28;125776;-86
2022/06/30 08:51:05;;;;;;;25.67;6.23;;;28.10;79.60;;;28.71;44.40;98157.50;4972098;28;123774;-86
2022/06/30 08:53:40;;;;;;;10.80;5.27;;;28.10;78.70;;;28.72;44.27;98161.13;4969387;28;113815;-85
2022/06/30 08:56:07;;;;;;;8.57;4.83;;;28.10;78.70;;;28.76;44.37;98150.47;4973865;28;113238;-87
2022/06/30 08:58:36;;;;;;;4.20;3.80;;;28.10;78.50;;;28.80;44.40;98149.13;4976819;28;124388;-86
2022/06/30 09:01:05;;;;;;;3.67;3.27;;;28.20;78.40;;;28.88;44.10;98140.34;4973627;28;123751;-86
2022/06/30 09:03:34;;;;;;;3.97;3.20;;;28.20;77.90;;;28.90;43.57;98138.66;4982998;28;114814;-86
2022/06/30 09:06:01;;;;;;;4.70;3.43;;;28.30;77.30;;;28.94;43.53;98141.41;4988234;28;113930;-85
2022/06/30 09:08:27;;;;;;;4.43;3.03;;;28.30;77.00;;;28.98;43.25;98136.38;4976898;28;124295;-86
2022/06/30 09:10:58;;;;;;;3.43;3.10;;;28.30;76.60;;;29.02;43.03;98132.19;4982911;28;123145;-89
2022/06/30 09:13:25;;;;;;;5.40;3.90;;;28.40;76.00;;;29.03;42.00;98142.31;4974807;28;115226;-89
2022/06/30 09:15:52;;;;;;;6.20;3.60;;;28.40;75.00;;;29.04;42.32;98135.41;4977613;28;115364;-88
2022/06/30 09:18:27;;;;;;;6.80;3.63;;;28.40;74.90;;;29.05;42.11;98136.22;4978751;28;124223;-88
2022/06/30 09:20:55;;;;;;;3.73;3.37;;;28.50;74.50;;;29.06;42.12;98132.09;4985040;28;124228;-89
2022/06/30 09:23:25;;;;;;;4.43;3.20;;;28.50;74.50;;;29.08;41.84;98138.16;4983105;28;114116;-88
2022/06/30 09:25:55;;;;;;;3.47;2.90;;;28.50;74.00;;;29.11;41.91;98127.91;4980849;28;114653;-88
2022/06/30 09:28:51;;;;;;;3.90;3.37;;;28.50;73.90;;;29.15;41.62;98128.56;4977092;28;123545;-87
2022/06/30 09:31:42;;;;;;;4.30;3.10;;;28.60;73.30;;;29.15;41.51;98134.25;4984129;28;124521;-88
2022/06/30 09:34:19;;;;;;;4.43;2.60;;;28.60;73.00;;;29.18;41.20;98133.38;4988433;28;114133;-87
2022/06/30 09:36:51;;;;;;;2.50;2.30;;;28.60;72.70;;;29.23;40.69;98112.88;4980131;28;114287;-89
2022/06/30 09:39:20;;;;;;;4.27;2.63;;;28.60;73.10;;;29.25;40.75;98116.06;4989875;28;125006;-90
2022/06/30 09:41:49;;;;;;;3.03;2.73;;;28.70;72.00;;;29.27;40.37;98127.78;4986342;28;124682;-90
2022/06/30 09:44:19;;;;;;;2.63;2.43;;;28.70;71.10;;;29.31;39.75;98125.63;4977045;28;114367;-90
2022/06/30 09:47:15;;;;;;;3.43;2.27;;;28.70;70.60;;;29.33;39.13;98116.63;4975335;28;114077;-88
2022/06/30 09:49:45;;;;;;;3.47;2.30;;;28.80;68.70;;;29.36;38.17;98122.19;4963741;28;123473;-89
2022/06/30 09:52:25;;;;;;;3.57;2.40;;;28.80;67.70;;;29.36;37.81;98110.81;4982802;28;123636;-88
2022/06/30 09:55:01;;;;;;;2.60;2.40;;;28.80;66.50;;;29.38;38.08;98107.53;4977667;28;114249;-88
2022/06/30 09:57:41;;;;;;;4.93;2.60;;;28.80;66.30;;;29.40;37.98;98097.28;4982478;28;114294;-89
2022/06/30 10:00:15;;;;;;;2.50;2.30;;;28.80;66.30;;;29.42;38.02;98091.09;4973190;28;124391;-89
2022/06/30 10:02:46;;;;;;;4.90;3.07;;;28.90;66.40;;;29.45;37.75;98095.91;4975486;28;122978;-90
2022/06/30 10:05:21;;;;;;;4.10;3.30;;;28.90;66.20;;;29.49;38.29;98093.72;4974935;28;115086;-89
2022/06/30 10:07:48;;;;;;;3.20;2.73;;;28.90;66.80;;;29.55;39.03;98100.44;4961737;28;115245;-89
2022/06/30 10:10:17;;;;;;;6.63;3.63;;;29.00;67.40;;;29.61;38.88;98109.22;4987194;28;122266;-89
2022/06/30 10:12:45;;;;;;;2.87;2.57;;;29.00;67.50;;;29.66;38.97;98100.91;4977262;28;123906;-89
2022/06/30 10:15:16;;;;;;;7.30;3.80;;;29.10;67.70;;;29.69;38.41;98099.19;4974372;28;114654;-88
2022/06/30 10:17:52;;;;;;;5.60;4.03;;;29.10;67.30;;;29.69;37.83;98100.00;4981052;28;113039;-89
2022/06/30 10:20:20;;;;;;;3.60;3.30;;;29.10;65.90;;;29.71;38.77;98094.63;4961617;28;123558;-89
2022/06/30 10:22:51;;;;;;;4.30;3.57;;;29.20;66.50;;;29.75;38.49;98088.81;4973736;28;123819;-88
2022/06/30 10:25:18;;;;;;;4.03;3.13;;;29.20;66.40;;;29.77;38.48;98094.03;4999092;28;114359;-88
2022/06/30 10:27:46;;;;;;;4.10;3.40;;;29.20;66.50;;;29.79;38.31;98098.00;4980030;28;114410;-89
2022/06/30 10:30:16;;;;;;;6.70;4.00;;;29.20;66.50;;;29.80;38.33;98093.94;4981629;28;124421;-89
2022/06/30 10:33:14;;;;;;;8.00;4.07;;;29.30;66.50;;;29.80;38.07;98090.28;4986459;28;123976;-89
2022/06/30 10:36:08;;;;;;;3.60;3.13;;;29.30;65.50;;;29.79;38.08;98092.31;4986219;28;114128;-89